createdAt,value
2018-12-12T00:02:33.318Z,95.60
2018-12-12T00:05:23.349Z,95.55
2018-12-12T00:08:11.943Z,97.75
2018-12-12T00:11:02.668Z,94.03
2018-12-12T00:13:51.668Z,93.87
2018-12-12T00:16:40.084Z,95.32
2018-12-12T00:19:30.022Z,95.38
2018-12-12T00:22:18.873Z,95.35
2018-12-12T00:25:07.578Z,94.90
2018-12-12T00:27:56.062Z,90.90
2018-12-12T00:30:49.259Z,96.05
2018-12-12T00:33:37.806Z,97.97
2018-12-12T00:36:26.329Z,97.42
2018-12-12T00:39:14.307Z,97.12
2018-12-12T00:42:02.814Z,94.10
2018-12-12T00:44:51.342Z,98.10
2018-12-12T00:47:39.330Z,100.53
2018-12-12T00:50:27.319Z,99.83
2018-12-12T00:53:16.038Z,98.12
2018-12-12T00:56:03.732Z,97.30
2018-12-12T00:58:51.642Z,96.55
2018-12-12T01:01:39.039Z,97.20
2018-12-12T01:04:27.051Z,97.75
2018-12-12T01:07:15.708Z,97.42
2018-12-12T01:10:05.109Z,99.95
2018-12-12T01:12:53.196Z,95.45
2018-12-12T01:15:40.913Z,101.20
2018-12-12T01:18:29.029Z,96.82
2018-12-12T01:21:17.830Z,99.60
2018-12-12T01:24:06.940Z,98.97
2018-12-12T01:26:55.598Z,98.62
2018-12-12T01:29:44.876Z,98.00
2018-12-12T01:32:33.477Z,97.72
2018-12-12T01:35:22.182Z,95.00
2018-12-12T01:38:11.923Z,93.52
2018-12-12T01:40:59.819Z,98.35
2018-12-12T01:43:48.388Z,97.75
2018-12-12T01:46:36.887Z,97.37
2018-12-12T01:49:25.274Z,96.37
2018-12-12T01:52:14.397Z,101.40
2018-12-12T01:55:02.313Z,95.05
2018-12-12T01:57:51.844Z,95.75
2018-12-12T02:00:40.637Z,93.82
2018-12-12T02:03:28.273Z,94.25
2018-12-12T02:06:16.111Z,99.58
2018-12-12T02:09:03.545Z,99.07
2018-12-12T02:11:51.863Z,99.97
2018-12-12T02:14:41.227Z,101.38
2018-12-12T02:17:29.552Z,101.20
2018-12-12T02:20:17.286Z,100.78
2018-12-12T02:23:06.160Z,101.47
2018-12-12T02:25:54.081Z,94.17
2018-12-12T02:28:42.490Z,93.27
2018-12-12T02:31:31.167Z,96.12
2018-12-12T02:34:19.351Z,98.22
2018-12-12T02:37:07.679Z,97.53
2018-12-12T02:39:55.976Z,101.55
2018-12-12T02:42:43.944Z,97.60
2018-12-12T02:45:32.607Z,93.15
2018-12-12T02:48:21.303Z,93.30
2018-12-12T02:51:09.145Z,91.92
2018-12-12T02:53:59.275Z,96.95
2018-12-12T02:56:50.455Z,98.65
2018-12-12T02:59:39.088Z,99.50
2018-12-12T03:02:27.361Z,102.92
2018-12-12T03:05:15.848Z,98.15
2018-12-12T03:08:04.750Z,97.35
2018-12-12T03:12:17.704Z,97.37
2018-12-12T03:15:05.929Z,98.05
2018-12-12T03:17:54.333Z,95.50
2018-12-12T03:20:43.819Z,96.97
2018-12-12T03:23:32.232Z,92.45
2018-12-12T03:26:20.495Z,96.45
2018-12-12T03:29:08.103Z,96.17
2018-12-12T03:31:55.895Z,96.80
2018-12-12T03:34:44.186Z,96.37
2018-12-12T03:37:33.507Z,100.18
2018-12-12T03:40:22.173Z,96.75
2018-12-12T03:43:11.104Z,96.70
2018-12-12T03:46:00.684Z,96.25
2018-12-12T03:48:48.484Z,94.28
2018-12-12T03:51:37.632Z,92.35
2018-12-12T03:54:28.488Z,94.97
2018-12-12T03:57:16.494Z,96.85
2018-12-12T04:00:06.375Z,90.42
2018-12-12T04:02:55.855Z,94.37
2018-12-12T04:05:46.990Z,93.35
2018-12-12T04:08:36.402Z,94.17
2018-12-12T04:11:25.046Z,93.97
2018-12-12T04:14:13.502Z,95.47
2018-12-12T04:17:02.322Z,90.97
2018-12-12T04:19:51.634Z,95.53
2018-12-12T04:22:40.299Z,91.50
2018-12-12T04:25:28.553Z,90.92
2018-12-12T04:28:16.706Z,89.58
2018-12-12T04:31:04.898Z,92.00
2018-12-12T04:33:53.827Z,94.17
2018-12-12T04:36:42.464Z,93.78
2018-12-12T04:39:30.250Z,89.20
2018-12-12T04:42:20.122Z,92.57
2018-12-12T04:45:08.394Z,90.40
2018-12-12T04:47:57.317Z,90.32
2018-12-12T04:50:45.893Z,90.42
2018-12-12T04:53:34.801Z,97.60
2018-12-12T04:56:24.522Z,99.03
2018-12-12T04:59:13.324Z,97.50
2018-12-12T05:02:03.409Z,98.85
2018-12-12T05:04:53.437Z,96.02
2018-12-12T05:07:42.682Z,92.80
2018-12-12T05:10:30.659Z,92.80
2018-12-12T05:13:21.900Z,93.30
2018-12-12T05:16:09.286Z,92.75
2018-12-12T05:18:57.479Z,93.50
2018-12-12T05:21:46.112Z,90.83
2018-12-12T05:24:36.238Z,89.30
2018-12-12T05:27:25.217Z,87.00
2018-12-12T05:30:16.448Z,87.08
2018-12-12T05:33:05.907Z,87.97
2018-12-12T05:36:23.994Z,84.92
2018-12-12T05:39:14.645Z,85.47
2018-12-12T05:42:18.725Z,84.45
2018-12-12T05:45:11.870Z,85.67
2018-12-12T05:48:03.521Z,85.05
2018-12-12T05:50:51.266Z,85.90
2018-12-12T05:53:40.635Z,85.83
2018-12-12T05:56:28.939Z,85.80
2018-12-12T05:59:19.020Z,82.80
2018-12-12T06:02:08.135Z,86.22
2018-12-12T06:04:58.574Z,86.97
2018-12-12T06:07:48.198Z,82.57
2018-12-12T06:10:38.506Z,81.92
2018-12-12T06:13:28.080Z,84.87
2018-12-12T06:16:25.636Z,85.77
2018-12-12T06:19:17.539Z,85.28
2018-12-12T06:22:05.807Z,83.75
2018-12-12T06:24:54.137Z,84.50
2018-12-12T06:27:50.686Z,82.65
2018-12-12T06:30:42.033Z,83.10
2018-12-12T06:33:36.094Z,84.22
2018-12-12T06:36:27.381Z,82.17
2018-12-12T06:39:18.973Z,85.60
2018-12-12T06:42:09.973Z,81.50
2018-12-12T06:45:00.126Z,81.60
2018-12-12T06:47:50.767Z,79.82
2018-12-12T06:50:38.961Z,81.15
2018-12-12T06:53:28.570Z,82.72
2018-12-12T06:56:17.671Z,79.53
2018-12-12T06:59:10.668Z,80.80
2018-12-12T07:02:02.819Z,84.37
2018-12-12T07:04:55.946Z,80.83
2018-12-12T07:07:51.013Z,83.45
2018-12-12T07:10:47.643Z,81.53
2018-12-12T07:13:43.268Z,77.82
2018-12-12T07:16:54.888Z,76.82
2018-12-12T07:19:48.408Z,77.50
2018-12-12T07:22:37.770Z,75.62
2018-12-12T07:25:26.602Z,81.47
2018-12-12T07:28:15.181Z,80.57
2018-12-12T07:31:14.231Z,81.20
2018-12-12T07:34:16.207Z,79.95
2018-12-12T07:37:10.626Z,83.80
2018-12-12T07:40:00.177Z,80.03
2018-12-12T07:42:51.366Z,78.78
2018-12-12T07:45:56.579Z,78.15
2018-12-12T07:48:52.817Z,75.05
2018-12-12T07:51:47.095Z,79.58
2018-12-12T07:54:35.754Z,73.33
2018-12-12T08:00:18.405Z,74.32
2018-12-12T08:03:07.926Z,75.97
2018-12-12T08:05:56.164Z,74.97
2018-12-12T08:08:53.114Z,77.72
2018-12-12T08:11:47.900Z,77.58
2018-12-12T08:14:39.380Z,74.15
2018-12-12T08:17:32.009Z,75.20
2018-12-12T08:20:21.350Z,74.70
2018-12-12T08:23:11.320Z,78.10
2018-12-12T08:26:00.042Z,73.33
2018-12-12T08:28:49.835Z,73.72
2018-12-12T08:31:38.304Z,74.45
2018-12-12T08:34:26.557Z,72.50
2018-12-12T08:37:14.134Z,73.75
2018-12-12T08:40:06.757Z,72.10
2018-12-12T08:42:55.993Z,71.17
2018-12-12T08:45:44.261Z,68.62
2018-12-12T08:48:32.237Z,73.12
2018-12-12T08:51:20.644Z,70.95
2018-12-12T08:54:08.769Z,73.28
2018-12-12T08:57:01.022Z,73.45
2018-12-12T09:00:06.912Z,70.78
2018-12-12T09:03:10.651Z,66.97
2018-12-12T09:06:13.888Z,68.17
2018-12-12T09:09:04.716Z,66.20
2018-12-12T09:11:54.879Z,65.75
2018-12-12T09:14:43.158Z,65.20
2018-12-12T09:17:32.103Z,64.47
2018-12-12T09:20:21.076Z,65.37
2018-12-12T09:23:11.572Z,63.25
2018-12-12T09:26:08.521Z,65.40
2018-12-12T09:28:59.612Z,62.90
2018-12-12T09:31:52.240Z,63.42
2018-12-12T09:34:44.741Z,59.25
2018-12-12T09:37:34.969Z,61.25
2018-12-12T09:40:24.610Z,61.73
2018-12-12T09:43:13.425Z,59.15
2018-12-12T09:46:02.514Z,59.53
2018-12-12T09:48:50.363Z,56.50
2018-12-12T09:51:40.103Z,56.02
2018-12-12T09:54:30.772Z,58.00
2018-12-12T09:57:19.835Z,53.38
2018-12-12T10:00:09.503Z,55.40
2018-12-12T10:02:59.116Z,58.63
2018-12-12T10:05:47.186Z,55.03
2018-12-12T10:08:36.436Z,56.08
2018-12-12T10:11:25.113Z,51.55
2018-12-12T10:14:17.428Z,52.93
2018-12-12T10:17:07.188Z,52.53
2018-12-12T10:19:57.956Z,54.85
2018-12-12T10:22:50.738Z,53.13
2018-12-12T10:25:41.345Z,51.58
2018-12-12T10:28:32.800Z,51.23
2018-12-12T10:31:23.073Z,50.28
2018-12-12T10:34:21.560Z,49.88
2018-12-12T10:37:20.360Z,48.58
2018-12-12T10:40:12.738Z,50.92
2018-12-12T10:43:05.764Z,49.48
2018-12-12T10:45:59.429Z,46.60
2018-12-12T10:49:04.579Z,48.05
2018-12-12T10:52:01.095Z,49.18
2018-12-12T10:54:54.539Z,48.05
2018-12-12T10:57:51.191Z,46.88
2018-12-12T11:00:45.743Z,46.60
2018-12-12T11:03:43.935Z,45.55
2018-12-12T11:06:30.192Z,44.75
2018-12-12T11:09:20.327Z,44.27
2018-12-12T11:12:09.157Z,43.68
2018-12-12T11:14:57.056Z,46.33
2018-12-12T11:17:45.991Z,46.63
2018-12-12T11:20:34.612Z,43.55
2018-12-12T11:23:23.661Z,45.78
2018-12-12T11:26:13.394Z,43.60
2018-12-12T11:29:05.372Z,43.08
2018-12-12T11:31:57.565Z,44.90
2018-12-12T11:34:47.798Z,41.35
2018-12-12T11:37:39.372Z,42.20
2018-12-12T11:40:29.086Z,43.17
2018-12-12T11:43:17.861Z,39.75
2018-12-12T11:46:06.065Z,41.37
2018-12-12T11:48:54.451Z,41.65
2018-12-12T11:51:44.864Z,40.55
2018-12-12T11:54:33.425Z,42.20
2018-12-12T11:57:22.643Z,42.50
2018-12-12T12:00:13.237Z,42.03
2018-12-12T12:03:03.055Z,40.00
2018-12-12T12:05:53.008Z,41.25
2018-12-12T12:08:42.034Z,42.75
2018-12-12T12:11:31.070Z,40.98
2018-12-12T12:14:21.770Z,41.20
2018-12-12T12:17:11.350Z,42.33
2018-12-12T12:20:02.370Z,44.60
2018-12-12T12:22:52.716Z,45.98
2018-12-12T12:25:42.281Z,49.08
2018-12-12T12:28:32.125Z,54.50
2018-12-12T12:31:21.787Z,58.80
2018-12-12T12:34:12.012Z,60.80
2018-12-12T12:37:01.037Z,65.72
2018-12-12T12:40:01.392Z,73.30
2018-12-12T12:42:54.035Z,71.17
2018-12-12T12:45:49.119Z,74.10
2018-12-12T12:48:39.877Z,76.87
2018-12-12T12:51:31.243Z,78.12
2018-12-12T12:54:19.739Z,79.35
2018-12-12T12:57:08.056Z,76.82
2018-12-12T12:59:55.690Z,75.60
2018-12-12T13:02:44.256Z,73.33
2018-12-12T13:05:32.735Z,76.55
2018-12-12T13:08:20.688Z,74.45
2018-12-12T13:11:14.702Z,73.30
2018-12-12T13:14:02.914Z,76.80
2018-12-12T13:16:52.299Z,74.62
2018-12-12T13:19:40.467Z,76.20
2018-12-12T13:22:30.399Z,76.28
2018-12-12T13:25:18.473Z,75.75
2018-12-12T13:28:07.955Z,78.05
2018-12-12T13:30:56.752Z,77.87
2018-12-12T13:33:46.241Z,82.17
2018-12-12T13:36:35.999Z,81.70
2018-12-12T13:39:24.589Z,80.00
2018-12-12T13:42:15.206Z,80.35
2018-12-12T13:45:04.880Z,78.50
2018-12-12T13:47:54.000Z,79.53
2018-12-12T13:52:05.799Z,77.87
2018-12-12T13:54:54.659Z,76.95
2018-12-12T13:57:42.867Z,78.95
2018-12-12T14:00:31.070Z,78.52
2018-12-12T14:03:19.471Z,76.87
2018-12-12T14:06:07.536Z,76.45
2018-12-12T14:08:56.875Z,76.07
2018-12-12T14:11:44.738Z,74.62
2018-12-12T14:14:32.769Z,76.57
2018-12-12T14:17:22.682Z,75.47
2018-12-12T14:20:11.452Z,75.62
2018-12-12T14:22:59.444Z,76.60
2018-12-12T14:25:49.847Z,74.32
2018-12-12T14:28:38.647Z,77.25
2018-12-12T14:31:27.463Z,74.47
2018-12-12T14:34:15.814Z,76.57
2018-12-12T14:37:03.902Z,76.10
2018-12-12T14:39:52.745Z,76.40
2018-12-12T14:42:40.989Z,75.97
2018-12-12T14:45:28.750Z,78.07
2018-12-12T14:48:16.669Z,78.78
2018-12-12T14:51:04.694Z,78.35
2018-12-12T14:53:52.823Z,78.90
2018-12-12T14:56:41.990Z,78.28
2018-12-12T14:59:30.436Z,81.32
2018-12-12T15:02:18.316Z,79.92
2018-12-12T15:05:07.209Z,81.72
2018-12-12T15:07:56.168Z,82.17
2018-12-12T15:10:45.446Z,81.78
2018-12-12T15:13:36.658Z,82.08
2018-12-12T15:16:25.360Z,78.65
2018-12-12T15:19:13.412Z,81.37
2018-12-12T15:22:01.587Z,80.30
2018-12-12T15:24:49.317Z,80.65
2018-12-12T15:27:37.296Z,78.80
2018-12-12T15:30:25.374Z,77.08
2018-12-12T15:33:13.386Z,78.17
2018-12-12T15:36:01.286Z,77.65
2018-12-12T15:38:49.465Z,79.58
2018-12-12T15:41:37.660Z,79.42
2018-12-12T15:44:25.965Z,79.42
2018-12-12T15:47:14.305Z,79.62
2018-12-12T15:50:02.207Z,79.95
2018-12-12T15:52:49.868Z,78.37
2018-12-12T15:55:38.094Z,77.25
2018-12-12T15:58:26.068Z,78.55
2018-12-12T16:01:14.208Z,80.35
2018-12-12T16:04:03.872Z,77.72
2018-12-12T16:06:51.842Z,78.33
2018-12-12T16:09:41.263Z,78.47
2018-12-12T16:12:29.677Z,77.32
2018-12-12T16:15:18.175Z,75.28
2018-12-12T16:18:08.422Z,76.87
2018-12-12T16:20:57.612Z,75.47
2018-12-12T16:23:46.533Z,79.20
2018-12-12T16:26:35.365Z,75.45
2018-12-12T16:29:23.543Z,73.95
2018-12-12T16:32:12.358Z,75.17
2018-12-12T16:35:00.787Z,77.05
2018-12-12T16:37:50.368Z,76.95
2018-12-12T16:40:38.867Z,76.25
2018-12-12T16:43:27.365Z,76.22
2018-12-12T16:46:17.712Z,76.92
2018-12-12T16:49:06.717Z,74.22
2018-12-12T16:51:55.477Z,75.52
2018-12-12T16:54:45.885Z,75.52
2018-12-12T16:57:34.470Z,77.35
2018-12-12T17:00:23.245Z,75.00
2018-12-12T17:03:12.386Z,72.82
2018-12-12T17:06:01.158Z,75.52
2018-12-12T17:08:49.826Z,75.67
2018-12-12T17:11:38.739Z,75.87
2018-12-12T17:14:30.057Z,75.62
2018-12-12T17:17:19.079Z,76.05
2018-12-12T17:20:07.574Z,75.47
2018-12-12T17:22:57.750Z,71.72
2018-12-12T17:25:48.151Z,76.97
2018-12-12T17:28:36.026Z,75.95
2018-12-12T17:31:23.900Z,72.75
2018-12-12T17:34:12.972Z,76.75
2018-12-12T17:37:01.690Z,73.97
2018-12-12T17:39:51.772Z,72.60
2018-12-12T17:42:39.946Z,72.47
2018-12-12T17:45:27.875Z,72.25
2018-12-12T17:48:16.546Z,74.15
2018-12-12T17:51:05.081Z,72.20
2018-12-12T17:53:53.298Z,72.25
2018-12-12T17:56:42.494Z,71.55
2018-12-12T17:59:30.659Z,71.90
2018-12-12T18:02:19.152Z,70.95
2018-12-12T18:05:26.259Z,71.28
2018-12-12T18:08:15.184Z,68.10
2018-12-12T18:11:11.756Z,71.50
2018-12-12T18:13:59.716Z,71.12
2018-12-12T18:16:50.482Z,71.30
2018-12-12T18:19:39.181Z,72.00
2018-12-12T18:22:29.061Z,68.78
2018-12-12T18:25:24.273Z,70.75
2018-12-12T18:28:12.641Z,71.22
2018-12-12T18:31:05.402Z,69.45
2018-12-12T18:33:56.109Z,69.85
2018-12-12T18:36:47.334Z,68.50
2018-12-12T18:39:35.544Z,69.37
2018-12-12T18:42:23.928Z,69.90
2018-12-12T18:45:14.584Z,67.22
2018-12-12T18:48:02.705Z,69.17
2018-12-12T18:50:53.301Z,67.65
2018-12-12T18:53:43.749Z,69.80
2018-12-12T18:56:34.742Z,67.50
2018-12-12T18:59:24.088Z,67.12
2018-12-12T19:02:14.689Z,67.15
2018-12-12T19:05:04.690Z,69.60
2018-12-12T19:07:53.083Z,68.15
2018-12-12T19:10:41.958Z,69.32
2018-12-12T19:13:30.057Z,68.80
2018-12-12T19:16:19.948Z,66.82
2018-12-12T19:19:07.809Z,68.83
2018-12-12T19:21:55.608Z,66.90
2018-12-12T19:24:44.916Z,66.17
2018-12-12T19:27:33.635Z,65.75
2018-12-12T19:30:21.669Z,67.60
2018-12-12T19:33:09.093Z,67.45
2018-12-12T19:35:57.021Z,67.62
2018-12-12T19:38:44.902Z,68.55
2018-12-12T19:41:34.444Z,67.42
2018-12-12T19:44:23.363Z,66.53
2018-12-12T19:47:12.861Z,65.50
2018-12-12T19:50:00.608Z,65.03
2018-12-12T19:52:50.229Z,67.78
2018-12-12T19:55:38.732Z,66.00
2018-12-12T19:58:26.425Z,64.72
2018-12-12T20:01:15.495Z,66.80
2018-12-12T20:04:03.576Z,66.77
2018-12-12T20:06:52.916Z,67.35
2018-12-12T20:09:40.695Z,66.50
2018-12-12T20:12:28.843Z,68.28
2018-12-12T20:15:21.976Z,65.22
2018-12-12T20:18:10.274Z,66.17
2018-12-12T20:20:59.185Z,66.82
2018-12-12T20:23:47.155Z,65.42
2018-12-12T20:26:35.752Z,61.58
2018-12-12T20:29:24.507Z,62.83
2018-12-12T20:32:13.761Z,63.60
2018-12-12T20:35:03.119Z,62.62
2018-12-12T20:37:52.823Z,62.03
2018-12-12T20:40:41.064Z,64.55
2018-12-12T20:43:30.459Z,63.35
2018-12-12T20:46:19.711Z,64.22
2018-12-12T20:49:08.234Z,64.95
2018-12-12T20:51:56.062Z,61.08
2018-12-12T20:54:44.538Z,61.58
2018-12-12T20:57:34.139Z,63.80
2018-12-12T21:00:21.992Z,60.70
2018-12-12T21:03:10.737Z,60.20
2018-12-12T21:05:58.957Z,61.37
2018-12-12T21:08:47.631Z,59.88
2018-12-12T21:11:35.536Z,60.98
2018-12-12T21:14:24.298Z,61.65
2018-12-12T21:17:13.321Z,60.73
2018-12-12T21:20:02.502Z,60.73
2018-12-12T21:22:51.141Z,60.00
2018-12-12T21:25:39.413Z,59.85
2018-12-12T21:28:26.908Z,59.85
2018-12-12T21:31:15.115Z,62.08
2018-12-12T21:34:03.268Z,60.48
2018-12-12T21:36:52.479Z,60.50
2018-12-12T21:39:41.589Z,60.38
2018-12-12T21:42:30.224Z,65.30
2018-12-12T21:45:19.433Z,60.45
2018-12-12T21:48:07.249Z,62.27
2018-12-12T21:50:56.122Z,64.77
2018-12-12T21:53:44.409Z,64.22
2018-12-12T21:56:34.307Z,64.82
2018-12-12T21:59:24.444Z,63.90
2018-12-12T22:02:12.974Z,64.07
2018-12-12T22:05:02.057Z,61.30
2018-12-12T22:07:50.544Z,60.67
2018-12-12T22:10:38.559Z,65.12
2018-12-12T22:13:26.253Z,61.53
2018-12-12T22:16:16.487Z,64.82
2018-12-12T22:19:04.563Z,64.05
2018-12-12T22:21:56.106Z,60.75
2018-12-12T22:24:44.072Z,61.95
2018-12-12T22:27:32.149Z,63.48
2018-12-12T22:30:20.325Z,63.17
2018-12-12T22:33:07.972Z,62.45
2018-12-12T22:35:56.565Z,62.45
2018-12-12T22:38:44.717Z,63.00
2018-12-12T22:41:32.487Z,63.05
2018-12-12T22:44:20.472Z,63.40
2018-12-12T22:47:11.002Z,63.02
2018-12-12T22:49:59.494Z,64.10
2018-12-12T22:52:47.849Z,62.50
2018-12-12T22:55:35.769Z,66.05
2018-12-12T22:58:23.518Z,63.98
2018-12-12T23:01:15.518Z,61.18
2018-12-12T23:04:06.204Z,64.35
2018-12-12T23:06:55.544Z,64.27
2018-12-12T23:09:45.442Z,63.50
2018-12-12T23:12:34.293Z,65.83
2018-12-12T23:15:22.150Z,63.92
2018-12-12T23:18:10.013Z,67.67
2018-12-12T23:20:57.636Z,70.40
2018-12-12T23:23:46.127Z,67.92
2018-12-12T23:26:34.652Z,65.50
2018-12-12T23:29:22.641Z,68.28
2018-12-12T23:32:10.700Z,68.10
2018-12-12T23:34:59.042Z,67.55
2018-12-12T23:37:47.354Z,67.35
2018-12-12T23:40:36.750Z,68.20
2018-12-12T23:43:24.724Z,67.55
2018-12-12T23:46:13.071Z,66.95
2018-12-12T23:49:01.726Z,67.45
2018-12-12T23:51:51.263Z,66.95
2018-12-12T23:54:39.562Z,66.72
2018-12-12T23:57:28.861Z,69.87
